createdAt,value
2022-08-10T00:02:22.004Z,100365.47
2022-08-10T00:04:57.726Z,100374.81
2022-08-10T00:07:35.804Z,100365.41
2022-08-10T00:10:11.623Z,100362.38
2022-08-10T00:12:55.309Z,100371.72
2022-08-10T00:15:44.662Z,100372.75
2022-08-10T00:18:40.528Z,100361.75
2022-08-10T00:21:18.189Z,100378.16
2022-08-10T00:23:58.494Z,100371.84
2022-08-10T00:27:52.200Z,100368.13
2022-08-10T00:29:34.174Z,100373.25
2022-08-10T00:32:14.921Z,100374.38
2022-08-10T00:34:56.545Z,100370.06
2022-08-10T00:37:39.801Z,100367.22
2022-08-10T00:40:20.032Z,100366.41
2022-08-10T00:43:23.129Z,100359.84
2022-08-10T00:46:00.604Z,100366.69
2022-08-10T00:48:44.561Z,100362.03
2022-08-10T00:51:43.190Z,100363.81
2022-08-10T00:54:29.830Z,100369.16
2022-08-10T00:57:15.727Z,100368.88
2022-08-10T00:59:59.807Z,100372.97
2022-08-10T01:02:42.197Z,100358.25
2022-08-10T01:05:15.163Z,100365.41
2022-08-10T01:08:25.962Z,100362.69
2022-08-10T01:12:38.475Z,100360.63
2022-08-10T01:15:00.428Z,100363.47
2022-08-10T01:17:49.936Z,100357.72
2022-08-10T01:20:54.786Z,100366.25
2022-08-10T01:24:04.067Z,100359.09
2022-08-10T01:27:02.908Z,100362.09
2022-08-10T01:29:56.325Z,100353.16
2022-08-10T01:33:04.625Z,100361.44
2022-08-10T01:35:55.524Z,100364.72
2022-08-10T01:39:03.891Z,100361.84
2022-08-10T01:42:03.278Z,100369.09
2022-08-10T01:44:40.391Z,100373.16
2022-08-10T01:47:38.588Z,100367.63
2022-08-10T01:50:24.561Z,100378.44
2022-08-10T01:53:09.602Z,100377.16
2022-08-10T01:55:59.706Z,100368.88
2022-08-10T01:58:39.844Z,100365.63
2022-08-10T02:01:35.800Z,100368.22
2022-08-10T02:04:16.650Z,100368.38
2022-08-10T02:06:56.996Z,100371.03
2022-08-10T02:09:38.795Z,100372.19
2022-08-10T02:12:17.493Z,100359.53
2022-08-10T02:14:59.177Z,100373.19
2022-08-10T02:18:00.527Z,100367.22
2022-08-10T02:20:48.968Z,100367.41
2022-08-10T02:23:37.089Z,100363.56
2022-08-10T02:26:16.794Z,100368.72
2022-08-10T02:28:59.461Z,100366.09
2022-08-10T02:31:30.813Z,100368.75
2022-08-10T02:34:05.702Z,100372.69
2022-08-10T02:36:52.680Z,100374.66
2022-08-10T02:39:25.894Z,100378.34
2022-08-10T02:42:18.826Z,100375.44
2022-08-10T02:45:31.241Z,100385.34
2022-08-10T02:48:24.445Z,100384.88
2022-08-10T02:51:05.787Z,100377.69
2022-08-10T02:53:55.721Z,100386.81
2022-08-10T02:56:50.963Z,100375.69
2022-08-10T02:59:46.097Z,100386.16
2022-08-10T03:02:28.409Z,100380.13
2022-08-10T03:05:11.576Z,100386.53
2022-08-10T03:08:01.743Z,100396.59
2022-08-10T03:10:51.953Z,100387.94
2022-08-10T03:13:25.233Z,100395.34
2022-08-10T03:16:02.426Z,100390.59
2022-08-10T03:18:38.838Z,100404.69
2022-08-10T03:21:18.726Z,100403.38
2022-08-10T03:23:56.055Z,100412.03
2022-08-10T03:26:29.532Z,100411.44
2022-08-10T03:29:12.813Z,100413.84
2022-08-10T03:31:57.294Z,100412.75
2022-08-10T03:34:36.637Z,100417.66
2022-08-10T03:37:14.906Z,100413.38
2022-08-10T03:40:15.760Z,100416.56
2022-08-10T03:42:53.645Z,100421.81
2022-08-10T03:45:32.137Z,100411.13
2022-08-10T03:48:52.180Z,100418.25
2022-08-10T03:51:31.144Z,100421.44
2022-08-10T03:54:10.137Z,100420.13
2022-08-10T03:56:45.706Z,100420.97
2022-08-10T03:59:27.311Z,100416.34
2022-08-10T04:02:41.538Z,100417.78
2022-08-10T04:05:15.249Z,100430.22
2022-08-10T04:07:55.450Z,100429.38
2022-08-10T04:10:34.159Z,100425.63
2022-08-10T04:13:16.368Z,100434.84
2022-08-10T04:15:51.077Z,100424.38
2022-08-10T04:18:26.556Z,100428.78
2022-08-10T04:21:17.405Z,100427.25
2022-08-10T04:23:53.064Z,100436.88
2022-08-10T04:26:33.161Z,100434.16
2022-08-10T04:29:19.572Z,100430.84
2022-08-10T04:32:02.199Z,100438.41
2022-08-10T04:34:44.786Z,100437.94
2022-08-10T04:37:23.770Z,100448.97
2022-08-10T04:40:29.708Z,100436.59
2022-08-10T04:43:12.734Z,100441.00
2022-08-10T04:45:51.727Z,100438.44
2022-08-10T04:48:43.455Z,100433.19
2022-08-10T04:51:46.626Z,100431.63
2022-08-10T04:54:25.540Z,100426.78
2022-08-10T04:57:10.574Z,100435.06
2022-08-10T04:59:43.467Z,100439.56
2022-08-10T05:02:31.497Z,100440.00
2022-08-10T05:05:12.970Z,100431.25
2022-08-10T05:07:54.348Z,100438.22
2022-08-10T05:10:35.520Z,100439.72
2022-08-10T05:13:13.448Z,100440.13
2022-08-10T05:15:52.051Z,100440.09
2022-08-10T05:18:28.530Z,100443.09
2022-08-10T05:21:06.483Z,100440.06
2022-08-10T05:23:34.801Z,100438.22
2022-08-10T05:26:21.077Z,100447.25
2022-08-10T05:28:54.018Z,100448.00
2022-08-10T05:31:39.548Z,100443.25
2022-08-10T05:34:20.898Z,100444.41
2022-08-10T05:36:57.147Z,100446.94
2022-08-10T05:39:35.868Z,100440.63
2022-08-10T05:42:20.635Z,100440.34
2022-08-10T05:44:55.637Z,100432.53
2022-08-10T05:48:53.831Z,100429.13
2022-08-10T05:50:43.734Z,100428.69
2022-08-10T05:53:59.590Z,100422.75
2022-08-10T05:56:20.260Z,100420.28
2022-08-10T05:59:03.057Z,100433.22
2022-08-10T06:01:43.776Z,100420.03
2022-08-10T06:04:43.025Z,100419.91
2022-08-10T06:07:27.243Z,100424.09
2022-08-10T06:10:10.457Z,100413.34
2022-08-10T06:13:21.467Z,100427.88
2022-08-10T06:16:11.021Z,100421.16
2022-08-10T06:18:49.269Z,100429.91
2022-08-10T06:21:22.548Z,100423.38
2022-08-10T06:24:08.152Z,100425.25
2022-08-10T06:26:49.791Z,100427.78
2022-08-10T06:29:28.907Z,100422.94
2022-08-10T06:32:00.227Z,100424.25
2022-08-10T06:34:44.300Z,100423.31
2022-08-10T06:37:17.822Z,100430.59
2022-08-10T06:39:59.266Z,100422.78
2022-08-10T06:42:31.745Z,100417.34
2022-08-10T06:45:08.970Z,100419.03
2022-08-10T06:48:14.789Z,100416.78
2022-08-10T06:51:00.354Z,100416.31
2022-08-10T06:53:52.767Z,100427.47
2022-08-10T06:56:36.559Z,100423.50
2022-08-10T06:59:27.105Z,100428.75
2022-08-10T07:02:10.085Z,100414.66
2022-08-10T07:04:55.082Z,100420.31
2022-08-10T07:07:38.028Z,100419.78
2022-08-10T07:10:19.350Z,100416.94
2022-08-10T07:13:08.218Z,100416.56
2022-08-10T07:15:57.264Z,100410.94
2022-08-10T07:18:33.695Z,100414.25
2022-08-10T07:21:17.953Z,100417.53
2022-08-10T07:24:00.152Z,100411.78
2022-08-10T07:26:47.683Z,100410.81
2022-08-10T07:29:54.561Z,100405.78
2022-08-10T07:32:35.385Z,100403.31
2022-08-10T07:35:16.315Z,100400.47
2022-08-10T07:37:56.969Z,100397.72
2022-08-10T07:40:41.886Z,100409.00
2022-08-10T07:43:19.934Z,100397.72
2022-08-10T07:46:20.404Z,100405.50
2022-08-10T07:49:15.263Z,100412.06
2022-08-10T07:52:04.088Z,100410.13
2022-08-10T07:54:44.568Z,100408.19
2022-08-10T07:57:31.979Z,100405.31
2022-08-10T08:00:17.731Z,100411.59
2022-08-10T08:03:04.943Z,100405.31
2022-08-10T08:05:59.180Z,100406.94
2022-08-10T08:08:48.575Z,100399.44
2022-08-10T08:11:26.165Z,100394.97
2022-08-10T08:14:04.076Z,100402.88
2022-08-10T08:16:44.389Z,100404.63
2022-08-10T08:19:26.526Z,100402.47
2022-08-10T08:24:10.890Z,100410.06
2022-08-10T08:25:17.255Z,100401.06
2022-08-10T08:27:55.179Z,100408.13
2022-08-10T08:30:39.868Z,100405.16
2022-08-10T08:33:19.902Z,100396.59
2022-08-10T08:36:23.978Z,100400.41
2022-08-10T08:38:57.297Z,100385.00
2022-08-10T08:41:48.329Z,100396.78
2022-08-10T08:44:35.113Z,100388.81
2022-08-10T08:47:51.646Z,100390.28
2022-08-10T08:50:59.679Z,100389.31
2022-08-10T08:54:01.558Z,100394.94
2022-08-10T08:56:57.961Z,100387.13
2022-08-10T08:59:47.375Z,100378.78
2022-08-10T09:02:54.792Z,100376.34
2022-08-10T09:05:27.615Z,100384.72
2022-08-10T09:08:08.898Z,100391.19
2022-08-10T09:11:22.499Z,100385.19
2022-08-10T09:14:40.324Z,100383.03
2022-08-10T09:17:48.807Z,100382.31
2022-08-10T09:20:52.827Z,100378.41
2022-08-10T09:24:01.609Z,100379.88
2022-08-10T09:26:48.034Z,100371.34
2022-08-10T09:29:33.835Z,100380.22
2022-08-10T09:36:14.640Z,100373.34
2022-08-10T09:36:32.594Z,100374.53
2022-08-10T09:40:12.725Z,100363.06
2022-08-10T09:42:42.117Z,100363.25
2022-08-10T09:45:52.344Z,100372.25
2022-08-10T09:48:35.904Z,100365.44
2022-08-10T09:51:45.794Z,100358.22
2022-08-10T09:54:38.700Z,100360.81
2022-08-10T09:57:46.387Z,100360.97
2022-08-10T10:00:27.415Z,100353.25
2022-08-10T10:03:24.103Z,100352.16
2022-08-10T10:06:22.587Z,100352.00
2022-08-10T10:09:30.136Z,100358.69
2022-08-10T10:12:26.857Z,100347.91
2022-08-10T10:15:24.812Z,100351.16
2022-08-10T10:18:19.097Z,100339.72
2022-08-10T10:21:23.898Z,100340.19
2022-08-10T10:24:25.838Z,100348.06
2022-08-10T10:27:16.177Z,100342.16
2022-08-10T10:30:13.296Z,100330.91
2022-08-10T10:32:59.354Z,100335.28
2022-08-10T10:35:50.764Z,100329.81
2022-08-10T10:38:32.958Z,100339.50
2022-08-10T10:41:12.378Z,100328.56
2022-08-10T10:44:06.241Z,100321.81
2022-08-10T10:47:26.782Z,100315.63
2022-08-10T10:50:37.146Z,100319.84
2022-08-10T10:53:19.678Z,100323.47
2022-08-10T10:56:14.395Z,100317.25
2022-08-10T10:59:33.219Z,100315.47
2022-08-10T11:02:36.631Z,100313.34
2022-08-10T11:05:20.471Z,100308.44
2022-08-10T11:08:30.312Z,100291.31
2022-08-10T11:12:00.250Z,100296.75
2022-08-10T11:14:34.830Z,100305.31
2022-08-10T11:17:28.242Z,100299.31
2022-08-10T11:20:19.382Z,100292.81
2022-08-10T11:23:11.682Z,100285.47
2022-08-10T11:26:00.074Z,100290.53
2022-08-10T11:28:38.778Z,100279.03
2022-08-10T11:31:48.007Z,100287.19
2022-08-10T11:34:48.453Z,100275.78
2022-08-10T11:38:32.212Z,100284.69
2022-08-10T11:40:52.715Z,100290.06
2022-08-10T11:43:30.971Z,100287.47
2022-08-10T11:46:29.165Z,100283.78
2022-08-10T11:49:35.593Z,100281.84
2022-08-10T11:52:15.625Z,100278.56
2022-08-10T11:55:12.329Z,100280.53
2022-08-10T11:57:55.744Z,100267.22
2022-08-10T12:00:34.761Z,100279.31
2022-08-10T12:03:13.767Z,100280.16
2022-08-10T12:05:55.082Z,100288.28
2022-08-10T12:10:03.890Z,100283.75
2022-08-10T12:11:53.340Z,100281.66
2022-08-10T12:15:10.052Z,100274.25
2022-08-10T12:18:17.828Z,100272.94
2022-08-10T12:20:58.495Z,100269.53
2022-08-10T12:23:48.441Z,100264.19
2022-08-10T12:26:59.877Z,100261.06
2022-08-10T12:29:46.676Z,100258.44
2022-08-10T12:32:38.936Z,100262.06
2022-08-10T12:35:29.702Z,100259.06
2022-08-10T12:38:25.795Z,100255.19
2022-08-10T12:41:09.680Z,100259.44
2022-08-10T12:44:21.020Z,100253.03
2022-08-10T12:47:42.281Z,100250.22
2022-08-10T12:50:33.222Z,100234.59
2022-08-10T12:53:20.258Z,100234.38
2022-08-10T12:55:55.539Z,100239.25
2022-08-10T12:58:57.397Z,100246.13
2022-08-10T13:02:08.643Z,100241.31
2022-08-10T13:04:39.107Z,100234.69
2022-08-10T13:08:25.879Z,100225.03
2022-08-10T13:10:47.800Z,100229.47
2022-08-10T13:13:25.364Z,100218.41
2022-08-10T13:16:03.820Z,100218.53
2022-08-10T13:18:45.509Z,100221.31
2022-08-10T13:21:23.334Z,100211.56
2022-08-10T13:24:09.156Z,100229.72
2022-08-10T13:27:26.180Z,100220.31
2022-08-10T13:30:05.904Z,100220.34
2022-08-10T13:32:50.466Z,100219.69
2022-08-10T13:35:31.253Z,100219.34
2022-08-10T13:38:02.019Z,100219.59
2022-08-10T13:40:44.974Z,100214.25
2022-08-10T13:43:16.810Z,100217.84
2022-08-10T13:46:02.003Z,100219.22
2022-08-10T13:48:49.579Z,100209.97
2022-08-10T13:51:57.393Z,100209.47
2022-08-10T13:54:51.451Z,100197.75
2022-08-10T13:57:38.351Z,100199.28
2022-08-10T14:00:34.473Z,100203.66
2022-08-10T14:03:23.362Z,100199.84
2022-08-10T14:06:06.798Z,100198.41
2022-08-10T14:08:51.663Z,100196.47
2022-08-10T14:11:37.200Z,100195.81
2022-08-10T14:14:32.209Z,100195.44
2022-08-10T14:17:12.799Z,100194.59
2022-08-10T14:19:59.955Z,100191.38
2022-08-10T14:22:45.970Z,100183.63
2022-08-10T14:25:23.012Z,100188.75
2022-08-10T14:28:03.214Z,100186.94
2022-08-10T14:30:40.915Z,100180.50
2022-08-10T14:33:22.610Z,100186.38
2022-08-10T14:36:20.553Z,100184.88
2022-08-10T14:39:00.683Z,100189.06
2022-08-10T14:42:03.104Z,100187.28
2022-08-10T14:45:05.461Z,100184.63
2022-08-10T14:47:52.367Z,100181.88
2022-08-10T14:50:33.471Z,100180.19
2022-08-10T14:53:19.208Z,100173.94
2022-08-10T14:56:02.638Z,100184.22
2022-08-10T14:58:59.391Z,100177.09
2022-08-10T15:02:39.620Z,100175.66
2022-08-10T15:05:09.045Z,100171.66
2022-08-10T15:07:58.751Z,100171.69
2022-08-10T15:10:34.797Z,100164.00
2022-08-10T15:13:34.581Z,100168.69
2022-08-10T15:16:18.301Z,100162.69
2022-08-10T15:19:00.410Z,100165.63
2022-08-10T15:21:44.779Z,100156.78
2022-08-10T15:24:44.808Z,100157.34
2022-08-10T15:27:34.372Z,100157.34
2022-08-10T15:30:39.570Z,100157.91
2022-08-10T15:33:59.535Z,100159.22
2022-08-10T15:37:47.368Z,100163.38
2022-08-10T15:40:30.818Z,100161.78
2022-08-10T15:43:25.756Z,100158.13
2022-08-10T15:46:39.261Z,100157.34
2022-08-10T15:49:47.744Z,100161.19
2022-08-10T15:53:03.313Z,100160.50
2022-08-10T15:55:51.547Z,100161.91
2022-08-10T15:58:52.313Z,100144.78
2022-08-10T16:02:13.418Z,100149.66
2022-08-10T16:04:59.172Z,100156.19
2022-08-10T16:07:49.423Z,100153.00
2022-08-10T16:10:42.688Z,100150.94
2022-08-10T16:13:51.037Z,100149.09
2022-08-10T16:16:39.540Z,100150.78
2022-08-10T16:19:23.754Z,100150.13
2022-08-10T16:22:36.622Z,100160.31
2022-08-10T16:25:48.316Z,100155.50
2022-08-10T16:28:54.961Z,100155.94
2022-08-10T16:31:30.929Z,100152.00
2022-08-10T16:34:17.245Z,100153.66
2022-08-10T16:37:04.859Z,100158.44
2022-08-10T16:39:59.458Z,100165.34
2022-08-10T16:42:49.841Z,100168.16
2022-08-10T16:45:37.994Z,100154.72
2022-08-10T16:48:13.219Z,100158.97
2022-08-10T16:51:14.215Z,100156.88
2022-08-10T16:53:56.568Z,100162.25
2022-08-10T16:56:50.838Z,100165.91
2022-08-10T16:59:36.112Z,100167.50
2022-08-10T17:02:17.101Z,100168.91
2022-08-10T17:04:57.606Z,100166.34
2022-08-10T17:07:39.079Z,100166.50
2022-08-10T17:10:24.635Z,100166.31
2022-08-10T17:13:06.799Z,100172.16
2022-08-10T17:15:59.405Z,100171.47
2022-08-10T17:18:42.439Z,100175.22
2022-08-10T17:21:28.695Z,100177.50
2022-08-10T17:24:03.883Z,100177.25
2022-08-10T17:26:44.862Z,100184.63
2022-08-10T17:29:58.763Z,100183.03
2022-08-10T17:32:43.862Z,100188.25
2022-08-10T17:35:36.753Z,100193.41
2022-08-10T17:38:38.897Z,100193.00
2022-08-10T17:41:21.669Z,100196.66
2022-08-10T17:44:07.851Z,100193.66
2022-08-10T17:46:53.487Z,100200.59
2022-08-10T17:49:32.961Z,100194.97
2022-08-10T17:52:13.142Z,100193.50
2022-08-10T17:55:10.902Z,100196.50
2022-08-10T17:57:47.378Z,100190.84
2022-08-10T18:00:43.750Z,100194.66
2022-08-10T18:03:40.693Z,100196.94
2022-08-10T18:06:26.082Z,100198.84
2022-08-10T18:09:12.637Z,100186.56
2022-08-10T18:12:10.160Z,100196.81
2022-08-10T18:14:57.980Z,100200.19
2022-08-10T18:17:47.491Z,100195.69
2022-08-10T18:20:27.769Z,100209.72
2022-08-10T18:23:10.653Z,100208.31
2022-08-10T18:25:51.797Z,100212.78
2022-08-10T18:28:36.457Z,100217.72
2022-08-10T18:31:14.956Z,100218.75
2022-08-10T18:33:59.302Z,100213.34
2022-08-10T18:36:46.175Z,100220.47
2022-08-10T18:39:36.073Z,100221.16
2022-08-10T18:42:25.858Z,100224.53
2022-08-10T18:45:29.953Z,100226.69
2022-08-10T18:48:24.017Z,100232.78
2022-08-10T18:51:10.842Z,100238.59
2022-08-10T18:53:56.505Z,100237.56
2022-08-10T18:56:36.881Z,100246.25
2022-08-10T18:59:37.091Z,100250.41
2022-08-10T19:03:02.968Z,100245.19
2022-08-10T19:06:31.158Z,100248.59
2022-08-10T19:09:46.246Z,100247.28
2022-08-10T19:12:30.772Z,100251.09
2022-08-10T19:15:48.515Z,100254.94
2022-08-10T19:18:37.851Z,100256.88
2022-08-10T19:21:45.304Z,100246.53
2022-08-10T19:24:53.458Z,100255.38
2022-08-10T19:28:14.243Z,100259.81
2022-08-10T19:31:01.373Z,100264.50
2022-08-10T19:33:48.556Z,100266.41
2022-08-10T19:36:32.621Z,100269.25
2022-08-10T19:39:50.451Z,100260.38
2022-08-10T19:42:42.885Z,100256.63
2022-08-10T19:46:00.752Z,100254.97
2022-08-10T19:48:59.608Z,100261.59
2022-08-10T19:52:11.268Z,100265.25
2022-08-10T19:55:20.897Z,100268.34
2022-08-10T19:58:35.406Z,100270.13
2022-08-10T20:01:14.756Z,100268.97
2022-08-10T20:04:00.047Z,100266.00
2022-08-10T20:07:30.281Z,100261.22
2022-08-10T20:10:46.554Z,100267.59
2022-08-10T20:14:01.362Z,100267.19
2022-08-10T20:16:39.941Z,100266.63
2022-08-10T20:19:19.441Z,100272.91
2022-08-10T20:22:05.939Z,100270.50
2022-08-10T20:25:01.868Z,100272.09
2022-08-10T20:28:00.172Z,100277.38
2022-08-10T20:30:56.820Z,100287.28
2022-08-10T20:33:32.860Z,100284.81
2022-08-10T20:36:26.446Z,100282.94
2022-08-10T20:39:31.073Z,100299.78
2022-08-10T20:42:20.157Z,100305.56
2022-08-10T20:45:21.752Z,100290.41
2022-08-10T20:48:15.879Z,100295.41
2022-08-10T20:51:06.755Z,100308.31
2022-08-10T20:53:48.157Z,100305.31
2022-08-10T20:56:48.083Z,100304.75
2022-08-10T21:00:04.090Z,100313.03
2022-08-10T21:03:06.870Z,100316.34
2022-08-10T21:05:59.016Z,100305.06
2022-08-10T21:08:37.010Z,100316.09
2022-08-10T21:11:37.169Z,100307.56
2022-08-10T21:14:21.102Z,100312.81
2022-08-10T21:17:19.860Z,100316.09
2022-08-10T21:20:11.876Z,100315.28
2022-08-10T21:22:56.116Z,100313.84
2022-08-10T21:25:58.879Z,100317.41
2022-08-10T21:29:20.619Z,100316.31
2022-08-10T21:32:19.981Z,100314.09
2022-08-10T21:35:20.254Z,100314.84
2022-08-10T21:38:42.940Z,100314.09
2022-08-10T21:41:57.134Z,100317.34
2022-08-10T21:45:58.190Z,100317.56
2022-08-10T21:49:11.560Z,100313.66
2022-08-10T21:52:27.426Z,100316.66
2022-08-10T21:55:57.245Z,100320.66
2022-08-10T21:59:15.907Z,100317.09
2022-08-10T22:02:14.367Z,100320.91
2022-08-10T22:05:07.515Z,100316.19
2022-08-10T22:08:07.811Z,100323.47
2022-08-10T22:11:08.747Z,100322.44
2022-08-10T22:14:12.565Z,100313.38
2022-08-10T22:18:03.640Z,100317.31
2022-08-10T22:20:55.657Z,100321.88
2022-08-10T22:24:06.863Z,100313.56
2022-08-10T22:27:46.896Z,100322.25
2022-08-10T22:31:32.296Z,100318.16
2022-08-10T22:34:32.269Z,100314.50
2022-08-10T22:37:48.359Z,100316.28
2022-08-10T22:40:43.360Z,100319.22
2022-08-10T22:43:44.980Z,100312.00
2022-08-10T22:46:47.474Z,100316.28
2022-08-10T22:49:26.236Z,100318.13
2022-08-10T22:52:09.747Z,100307.91
2022-08-10T22:55:20.008Z,100326.28
2022-08-10T22:58:10.360Z,100323.63
2022-08-10T23:00:45.778Z,100317.09
2022-08-10T23:03:35.712Z,100323.00
2022-08-10T23:06:16.216Z,100324.66
2022-08-10T23:09:02.553Z,100321.34
2022-08-10T23:12:00.684Z,100315.44
2022-08-10T23:14:44.418Z,100313.88
2022-08-10T23:18:01.623Z,100317.47
2022-08-10T23:20:42.373Z,100314.75
2022-08-10T23:23:30.993Z,100320.53
2022-08-10T23:26:15.510Z,100311.59
2022-08-10T23:28:58.615Z,100316.47
2022-08-10T23:32:06.842Z,100310.69
2022-08-10T23:36:30.534Z,100306.63
2022-08-10T23:37:57.685Z,100305.97
2022-08-10T23:40:42.169Z,100307.66
2022-08-10T23:43:20.032Z,100297.53
2022-08-10T23:46:02.432Z,100301.44
2022-08-10T23:48:39.994Z,100303.81
2022-08-10T23:51:18.407Z,100301.50
2022-08-10T23:54:09.389Z,100301.41
2022-08-10T23:56:48.839Z,100303.44
2022-08-10T23:59:38.828Z,100298.56
